Time;durP1;ratioP1;P1;durP2;ratioP2;P2;SDS_P1;SDS_P2;PMS_P1;PMS_P2;Temp;Humidity;BMP_temperature;BMP_pressure;BME280_temperature;BME280_humidity;BME280_pressure;Samples;Min_cycle;Max_cycle;Signal;HPM_P1;HPM_P2
2023/12/02 00:00:20;;;;;;;;;;;;;;;8.72;62.27;95172.94;4235610;28;5786;-66
2023/12/02 00:02:23;;;;;;;;;;;;;;;8.75;62.46;95171.69;4235919;28;5658;-65
2023/12/02 00:04:26;;;;;;;;;;;;;;;8.81;62.02;95173.44;4235763;28;6305;-66
2023/12/02 00:06:29;;;;;;;;;;;;;;;8.81;62.15;95168.16;4235686;28;5771;-66
2023/12/02 00:08:33;;;;;;;;;;;;;;;8.81;62.26;95162.09;4235363;28;5638;-66
2023/12/02 00:10:35;;;;;;;;;;;;;;;8.82;62.46;95163.69;4232771;28;5646;-66
2023/12/02 00:12:38;;;;;;;;;;;;;;;8.82;62.32;95166.34;4235853;28;5737;-66
2023/12/02 00:14:40;;;;;;;;;;;;;;;8.80;62.57;95163.91;4235826;28;5661;-67
2023/12/02 00:16:43;;;;;;;;;;;;;;;8.81;62.41;95170.00;4235710;28;5684;-66
2023/12/02 00:18:46;;;;;;;;;;;;;;;8.83;62.39;95175.84;4235238;28;7164;-67
2023/12/02 00:20:48;;;;;;;;;;;;;;;8.84;62.39;95174.84;4234355;28;5699;-66
2023/12/02 00:22:51;;;;;;;;;;;;;;;8.85;62.66;95185.16;4235748;28;5657;-67
2023/12/02 00:24:55;;;;;;;;;;;;;;;8.89;62.70;95188.94;4235301;27;5638;-66
2023/12/02 00:26:58;;;;;;;;;;;;;;;8.89;62.32;95191.59;4235728;28;5638;-65
2023/12/02 00:29:00;;;;;;;;;;;;;;;8.90;62.64;95193.19;4235289;27;5628;-66
2023/12/02 00:31:04;;;;;;;;;;;;;;;8.90;62.51;95189.75;4235383;28;5740;-65
2023/12/02 00:33:07;;;;;;;;;;;;;;;8.92;62.30;95190.34;4235372;28;5642;-66
2023/12/02 00:35:09;;;;;;;;;;;;;;;8.92;62.57;95179.78;4237066;27;5651;-66
2023/12/02 00:37:13;;;;;;;;;;;;;;;8.91;62.45;95188.72;4238455;27;5654;-66
2023/12/02 00:39:16;;;;;;;;;;;;;;;8.92;62.46;95200.88;4235270;28;5638;-66
2023/12/02 00:41:20;;;;;;;;;;;;;;;8.92;62.44;95192.97;4234795;28;5650;-66
2023/12/02 00:43:22;;;;;;;;;;;;;;;8.92;62.48;95196.41;4234819;27;5646;-66
2023/12/02 00:45:25;;;;;;;;;;;;;;;8.92;62.16;95185.06;4235100;27;5733;-66
2023/12/02 00:47:28;;;;;;;;;;;;;;;8.89;62.32;95182.88;4235331;28;5733;-66
2023/12/02 00:49:34;;;;;;;;;;;;;;;8.88;62.42;95194.44;4235388;28;5654;-67
2023/12/02 00:51:37;;;;;;;;;;;;;;;8.88;62.28;95191.81;4235207;28;5733;-67
2023/12/02 00:53:40;;;;;;;;;;;;;;;8.82;62.13;95197.94;4234893;28;5650;-66
2023/12/02 00:55:43;;;;;;;;;;;;;;;8.78;62.31;95194.16;4234474;28;5856;-67
2023/12/02 00:57:48;;;;;;;;;;;;;;;8.75;62.46;95201.47;4234578;28;5755;-67
2023/12/02 00:59:51;;;;;;;;;;;;;;;8.75;62.42;95198.84;4234801;28;5653;-67
2023/12/02 01:01:54;;;;;;;;;;;;;;;8.75;62.61;95195.41;4235039;28;5717;-66
2023/12/02 01:03:56;;;;;;;;;;;;;;;8.75;62.62;95198.03;4234666;28;5736;-67
2023/12/02 01:05:59;;;;;;;;;;;;;;;8.72;62.66;95195.81;4234599;28;5638;-66
2023/12/02 01:08:02;;;;;;;;;;;;;;;8.71;62.80;95205.56;4234420;28;5662;-66
2023/12/02 01:10:05;;;;;;;;;;;;;;;8.71;62.48;95210.03;4234504;28;5654;-66
2023/12/02 01:12:08;;;;;;;;;;;;;;;8.70;62.68;95214.50;4234540;28;5797;-66
2023/12/02 01:14:13;;;;;;;;;;;;;;;8.71;62.60;95215.28;4234649;28;5733;-66
2023/12/02 01:16:16;;;;;;;;;;;;;;;8.72;62.74;95212.47;4234807;28;5790;-66
2023/12/02 01:18:19;;;;;;;;;;;;;;;8.73;62.94;95218.53;4231107;28;5815;-66
2023/12/02 01:20:22;;;;;;;;;;;;;;;8.74;63.12;95225.41;4234829;28;5650;-66
2023/12/02 01:22:24;;;;;;;;;;;;;;;8.74;63.10;95215.69;4234746;28;5658;-66
2023/12/02 01:24:28;;;;;;;;;;;;;;;8.73;62.73;95218.53;4233846;27;5613;-66
2023/12/02 01:26:31;;;;;;;;;;;;;;;8.71;63.09;95220.56;4234377;28;5706;-67
2023/12/02 01:28:34;;;;;;;;;;;;;;;8.69;63.08;95220.00;4234365;28;5638;-67
2023/12/02 01:30:38;;;;;;;;;;;;;;;8.68;62.99;95223.66;4236753;27;5770;-66
2023/12/02 01:32:41;;;;;;;;;;;;;;;8.65;62.86;95226.72;4233311;27;5879;-66
2023/12/02 01:34:43;;;;;;;;;;;;;;;8.62;62.73;95238.50;4224241;27;5873;-67
2023/12/02 01:36:46;;;;;;;;;;;;;;;8.62;62.99;95238.50;4229182;27;5819;-67
2023/12/02 01:38:49;;;;;;;;;;;;;;;8.61;62.85;95244.00;4234663;27;5724;-66
2023/12/02 01:40:52;;;;;;;;;;;;;;;8.63;62.99;95250.66;4234379;27;5689;-67
2023/12/02 01:42:55;;;;;;;;;;;;;;;8.67;62.96;95248.38;4234276;28;5837;-66
2023/12/02 01:44:58;;;;;;;;;;;;;;;8.67;62.72;95254.47;4230701;27;5864;-66
2023/12/02 01:47:02;;;;;;;;;;;;;;;8.66;62.95;95246.78;4233820;28;5092;-66
2023/12/02 01:49:07;;;;;;;;;;;;;;;8.64;62.75;95246.19;4234179;28;5657;-66
2023/12/02 01:51:10;;;;;;;;;;;;;;;8.62;62.99;95248.25;4228664;28;5679;-66
2023/12/02 01:53:12;;;;;;;;;;;;;;;8.63;62.78;95250.66;4228325;28;5653;-66
2023/12/02 01:55:15;;;;;;;;;;;;;;;8.63;62.74;95255.94;4233641;28;5917;-66
2023/12/02 01:57:19;;;;;;;;;;;;;;;8.62;62.55;95259.59;4233927;27;5758;-66
2023/12/02 01:59:22;;;;;;;;;;;;;;;8.59;62.74;95265.28;4234090;28;5646;-65
2023/12/02 02:01:25;;;;;;;;;;;;;;;8.58;62.93;95268.13;4241191;27;5696;-66
2023/12/02 02:03:29;;;;;;;;;;;;;;;8.57;62.85;95277.84;4233704;28;5621;-65
2023/12/02 02:05:32;;;;;;;;;;;;;;;8.56;62.79;95275.44;4233553;28;5646;-65
2023/12/02 02:07:35;;;;;;;;;;;;;;;8.54;62.88;95274.88;4233378;27;6330;-66
2023/12/02 02:09:45;;;;;;;;;;;;;;;8.51;62.66;95278.75;4239044;27;5604;-66
2023/12/02 02:11:49;;;;;;;;;;;;;;;8.51;62.61;95278.75;4237639;27;5688;-66
2023/12/02 02:13:52;;;;;;;;;;;;;;;8.49;62.54;95280.75;4231260;27;5679;-66
2023/12/02 02:15:55;;;;;;;;;;;;;;;8.47;62.72;95274.91;4224674;27;5763;-66
2023/12/02 02:17:57;;;;;;;;;;;;;;;8.47;62.38;95280.19;4217930;28;5667;-66
2023/12/02 02:20:01;;;;;;;;;;;;;;;8.47;62.56;95282.81;4241842;27;5609;-65
2023/12/02 02:22:06;;;;;;;;;;;;;;;8.43;62.41;95285.09;4219266;27;5739;-66
2023/12/02 02:24:09;;;;;;;;;;;;;;;8.41;62.37;95283.69;4232934;27;5744;-66
2023/12/02 02:26:12;;;;;;;;;;;;;;;8.42;62.50;95290.56;4222438;27;5655;-66
2023/12/02 02:28:14;;;;;;;;;;;;;;;8.43;62.42;95279.00;4236903;27;5880;-67
2023/12/02 02:30:17;;;;;;;;;;;;;;;8.45;62.37;95282.22;4221704;27;5650;-67
2023/12/02 02:32:20;;;;;;;;;;;;;;;8.46;62.28;95286.47;4232748;27;5650;-67
2023/12/02 02:34:25;;;;;;;;;;;;;;;8.42;62.13;95285.31;4225595;27;5809;-67
2023/12/02 02:36:28;;;;;;;;;;;;;;;8.44;62.26;95285.88;4239083;27;5921;-67
2023/12/02 02:38:31;;;;;;;;;;;;;;;8.44;62.16;95299.06;4221223;28;5683;-67
2023/12/02 02:40:34;;;;;;;;;;;;;;;8.42;62.44;95296.63;4226518;27;5638;-67
2023/12/02 02:42:37;;;;;;;;;;;;;;;8.38;62.30;95294.63;4237621;27;5670;-68
2023/12/02 02:44:40;;;;;;;;;;;;;;;8.34;62.28;95301.34;4225883;27;5667;-67
2023/12/02 02:46:43;;;;;;;;;;;;;;;8.33;62.00;95291.81;4220302;27;5694;-67
2023/12/02 02:48:46;;;;;;;;;;;;;;;8.33;62.44;95294.47;4226057;27;5699;-67
2023/12/02 02:50:48;;;;;;;;;;;;;;;8.33;62.00;95294.47;4233072;27;5670;-67
2023/12/02 02:52:51;;;;;;;;;;;;;;;8.33;61.92;95292.63;4232720;27;5673;-67
2023/12/02 02:54:56;;;;;;;;;;;;;;;8.34;62.37;95293.44;4225553;27;5706;-67
2023/12/02 02:56:59;;;;;;;;;;;;;;;8.34;61.98;95306.59;4229424;28;5650;-67
2023/12/02 02:59:03;;;;;;;;;;;;;;;8.32;61.96;95306.81;4236337;27;5651;-67
2023/12/02 03:01:06;;;;;;;;;;;;;;;8.33;62.05;95312.88;4229692;27;5650;-67
2023/12/02 03:03:09;;;;;;;;;;;;;;;8.31;62.09;95320.19;4235598;27;5813;-67
2023/12/02 03:05:12;;;;;;;;;;;;;;;8.30;62.03;95315.97;4237307;27;5809;-67
2023/12/02 03:07:15;;;;;;;;;;;;;;;8.30;61.92;95308.88;4222498;27;5774;-67
2023/12/02 03:09:18;;;;;;;;;;;;;;;8.32;61.97;95319.19;4230376;27;5727;-67
2023/12/02 03:11:23;;;;;;;;;;;;;;;8.31;62.28;95320.19;4221848;27;5822;-66
2023/12/02 03:13:26;;;;;;;;;;;;;;;8.30;62.07;95318.59;4231633;27;5806;-68
2023/12/02 03:15:28;;;;;;;;;;;;;;;8.31;61.98;95323.63;4230907;27;5705;-67
2023/12/02 03:17:30;;;;;;;;;;;;;;;8.33;61.99;95326.06;4242322;27;5634;-67
2023/12/02 03:19:34;;;;;;;;;;;;;;;8.30;62.07;95318.59;4234900;27;5834;-67
2023/12/02 03:21:37;;;;;;;;;;;;;;;8.29;62.12;95330.16;4224894;27;5930;-67
2023/12/02 03:23:40;;;;;;;;;;;;;;;8.30;62.01;95331.75;4237951;27;5657;-67
2023/12/02 03:25:42;;;;;;;;;;;;;;;8.27;62.01;95330.38;4236317;28;6335;-67
2023/12/02 03:27:46;;;;;;;;;;;;;;;8.27;62.39;95334.78;4236296;28;5770;-67
2023/12/02 03:29:49;;;;;;;;;;;;;;;8.28;61.81;95333.81;4234353;27;5856;-65
2023/12/02 03:31:52;;;;;;;;;;;;;;;8.29;62.00;95338.03;4240210;27;5365;-66
2023/12/02 03:33:55;;;;;;;;;;;;;;;8.32;62.06;95340.25;4232907;27;6880;-66
2023/12/02 03:35:58;;;;;;;;;;;;;;;8.34;62.19;95343.47;4237963;27;5854;-66
2023/12/02 03:38:02;;;;;;;;;;;;;;;8.34;62.11;95346.09;4243658;27;6434;-65
2023/12/02 03:40:06;;;;;;;;;;;;;;;8.33;61.86;95345.28;4235033;27;5733;-65
2023/12/02 03:42:08;;;;;;;;;;;;;;;8.32;61.89;95348.16;4234031;27;5660;-66
2023/12/02 03:44:13;;;;;;;;;;;;;;;8.30;61.97;95360.72;4236499;27;5102;-65
2023/12/02 03:46:16;;;;;;;;;;;;;;;8.32;61.93;95359.47;4235907;28;7975;-66
2023/12/02 03:48:18;;;;;;;;;;;;;;;8.35;61.90;95359.06;4240216;27;5651;-65
2023/12/02 03:50:21;;;;;;;;;;;;;;;8.34;61.86;95365.38;4243817;27;5632;-66
2023/12/02 03:52:23;;;;;;;;;;;;;;;8.34;62.24;95370.63;4230427;27;5737;-66
2023/12/02 03:54:26;;;;;;;;;;;;;;;8.35;62.11;95374.88;4238204;27;5679;-66
2023/12/02 03:56:29;;;;;;;;;;;;;;;8.35;62.02;95371.44;4235009;27;5675;-67
2023/12/02 03:58:31;;;;;;;;;;;;;;;8.34;62.36;95375.06;4232178;27;6404;-66
2023/12/02 04:00:35;;;;;;;;;;;;;;;8.35;62.11;95374.88;4247433;27;5722;-66
2023/12/02 04:02:39;;;;;;;;;;;;;;;8.30;62.08;95374.69;4235887;28;5764;-66
2023/12/02 04:04:42;;;;;;;;;;;;;;;8.30;62.38;95379.16;4237114;27;5744;-66
2023/12/02 04:06:45;;;;;;;;;;;;;;;8.30;62.12;95387.03;4241208;27;5892;-66
2023/12/02 04:08:49;;;;;;;;;;;;;;;8.29;62.12;95385.44;4238457;27;5845;-66
2023/12/02 04:10:52;;;;;;;;;;;;;;;8.28;62.10;95389.91;4242641;27;5779;-66
2023/12/02 04:13:15;;;;;;;;;;;;;;;8.27;62.07;95390.91;4235201;28;5847;-66
2023/12/02 04:15:18;;;;;;;;;;;;;;;8.27;62.09;95405.88;4235512;28;5716;-66
2023/12/02 04:17:22;;;;;;;;;;;;;;;8.29;62.24;95398.59;4235267;28;5732;-66
2023/12/02 04:19:25;;;;;;;;;;;;;;;8.34;62.04;95414.56;4235666;28;6468;-66
2023/12/02 04:21:28;;;;;;;;;;;;;;;8.36;61.78;95402.00;4234877;28;5641;-66
2023/12/02 04:23:31;;;;;;;;;;;;;;;8.34;62.25;95423.28;4240394;27;5717;-66
2023/12/02 04:25:34;;;;;;;;;;;;;;;8.33;61.97;95412.94;4231911;28;6309;-67
2023/12/02 04:27:37;;;;;;;;;;;;;;;8.34;62.01;95425.94;4228959;27;5643;-67
2023/12/02 04:29:41;;;;;;;;;;;;;;;8.38;61.86;95421.03;4235140;28;5650;-67
2023/12/02 04:31:44;;;;;;;;;;;;;;;8.37;61.96;95424.69;4235199;28;5695;-66
2023/12/02 04:33:48;;;;;;;;;;;;;;;8.35;62.04;95427.53;4235113;28;5662;-66
2023/12/02 04:35:51;;;;;;;;;;;;;;;8.36;61.95;95431.78;4236804;27;5696;-67
2023/12/02 04:37:54;;;;;;;;;;;;;;;8.35;62.07;95435.44;4241111;27;5833;-66
2023/12/02 04:39:57;;;;;;;;;;;;;;;8.37;62.04;95432.59;4234502;28;5846;-66
2023/12/02 04:42:00;;;;;;;;;;;;;;;8.33;61.87;95439.28;4235043;28;5657;-66
2023/12/02 04:44:03;;;;;;;;;;;;;;;8.30;62.14;95447.59;4234828;28;5642;-66
2023/12/02 04:46:07;;;;;;;;;;;;;;;8.26;62.13;95449.84;4232024;27;5625;-67
2023/12/02 04:48:11;;;;;;;;;;;;;;;8.23;62.19;95457.34;4233930;28;5616;-67
2023/12/02 04:50:16;;;;;;;;;;;;;;;8.21;61.91;95460.19;4238894;27;5884;-67
2023/12/02 04:52:19;;;;;;;;;;;;;;;8.24;61.90;95458.97;4226655;27;5762;-65
2023/12/02 04:54:22;;;;;;;;;;;;;;;8.20;62.00;95457.78;4234891;28;5634;-68
2023/12/02 04:56:25;;;;;;;;;;;;;;;8.18;62.06;95458.00;4235573;27;5639;-67
2023/12/02 04:58:28;;;;;;;;;;;;;;;8.20;61.84;95473.59;4240777;27;5613;-68
2023/12/02 05:00:30;;;;;;;;;;;;;;;8.20;61.87;95465.69;4238090;27;6327;-67
2023/12/02 05:02:34;;;;;;;;;;;;;;;8.21;62.05;95468.09;4234973;28;6395;-65
2023/12/02 05:04:37;;;;;;;;;;;;;;;8.25;62.04;95471.13;4235028;27;5854;-66
2023/12/02 05:06:41;;;;;;;;;;;;;;;8.26;62.01;95470.91;4234082;27;5851;-66
2023/12/02 05:08:45;;;;;;;;;;;;;;;8.24;61.98;95472.94;4233119;27;5683;-66
2023/12/02 05:10:48;;;;;;;;;;;;;;;8.24;61.68;95482.66;4228916;27;5762;-66
2023/12/02 05:12:51;;;;;;;;;;;;;;;8.27;62.03;95492.78;4229950;27;5629;-66
2023/12/02 05:14:52;;;;;;;;;;;;;;;8.28;61.60;95489.16;4233601;27;5662;-66
2023/12/02 05:16:55;;;;;;;;;;;;;;;8.27;61.86;95493.59;4237548;27;5896;-66
2023/12/02 05:18:57;;;;;;;;;;;;;;;8.26;61.82;95505.13;4201051;28;5705;-66
2023/12/02 05:21:01;;;;;;;;;;;;;;;8.26;61.95;95499.06;4202997;28;5710;-66
2023/12/02 05:23:05;;;;;;;;;;;;;;;8.25;61.65;95500.88;4200889;28;6497;-66
2023/12/02 05:25:09;;;;;;;;;;;;;;;8.27;62.02;95505.94;4200651;28;5684;-66
2023/12/02 05:27:12;;;;;;;;;;;;;;;8.27;61.77;95513.81;4203436;28;5771;-66
2023/12/02 05:29:15;;;;;;;;;;;;;;;8.27;62.02;95511.19;4197133;28;6090;-66
2023/12/02 05:31:19;;;;;;;;;;;;;;;8.28;61.79;95518.09;4200478;28;5697;-65
2023/12/02 05:33:22;;;;;;;;;;;;;;;8.29;61.99;95523.16;4199401;28;5776;-66
2023/12/02 05:35:25;;;;;;;;;;;;;;;8.29;62.06;95523.16;4198847;28;5774;-66
2023/12/02 05:37:28;;;;;;;;;;;;;;;8.29;61.82;95530.25;4205145;28;5968;-66
2023/12/02 05:39:34;;;;;;;;;;;;;;;8.28;62.15;95539.16;4200615;28;5712;-66
2023/12/02 05:41:40;;;;;;;;;;;;;;;8.27;62.24;95541.00;4207975;28;5687;-66
2023/12/02 05:43:43;;;;;;;;;;;;;;;8.27;62.23;95548.91;4201811;28;5110;-66
2023/12/02 05:45:46;;;;;;;;;;;;;;;8.27;62.14;95550.69;4202593;28;5826;-66
2023/12/02 05:47:51;;;;;;;;;;;;;;;8.27;62.13;95548.06;4206967;28;5692;-66
2023/12/02 05:49:54;;;;;;;;;;;;;;;8.23;62.07;95560.03;4200177;28;5698;-66
2023/12/02 05:51:56;;;;;;;;;;;;;;;8.16;61.79;95560.06;4200511;28;5684;-66
2023/12/02 05:54:00;;;;;;;;;;;;;;;8.12;61.76;95562.28;4200622;28;5685;-66
2023/12/02 05:56:04;;;;;;;;;;;;;;;8.08;62.15;95569.00;4200382;28;5855;-66
2023/12/02 05:58:07;;;;;;;;;;;;;;;8.00;61.61;95571.03;4200392;28;5772;-67
2023/12/02 06:00:11;;;;;;;;;;;;;;;7.98;61.62;95567.81;4200306;28;5749;-67
2023/12/02 06:02:14;;;;;;;;;;;;;;;7.98;61.73;95579.16;4200463;28;5792;-67
2023/12/02 06:04:17;;;;;;;;;;;;;;;7.97;61.75;95576.72;4200383;28;5910;-66
2023/12/02 06:06:20;;;;;;;;;;;;;;;7.95;61.52;95584.81;4200469;28;5856;-66
2023/12/02 06:08:23;;;;;;;;;;;;;;;7.94;61.47;95583.22;4199621;28;5681;-67
2023/12/02 06:10:26;;;;;;;;;;;;;;;7.94;61.56;95593.75;4183780;28;5714;-66
2023/12/02 06:12:29;;;;;;;;;;;;;;;7.95;61.44;95600.63;4183822;28;5834;-67
2023/12/02 06:14:33;;;;;;;;;;;;;;;7.98;61.66;95594.94;4180532;28;5870;-66
2023/12/02 06:16:37;;;;;;;;;;;;;;;8.02;61.40;95587.44;4180875;28;5778;-66
2023/12/02 06:18:39;;;;;;;;;;;;;;;8.03;61.41;95602.19;4211860;28;5643;-66
2023/12/02 06:20:44;;;;;;;;;;;;;;;8.04;61.45;95603.81;4216882;28;5712;-66
2023/12/02 06:22:47;;;;;;;;;;;;;;;8.06;61.54;95607.06;4216853;28;5668;-66
2023/12/02 06:24:50;;;;;;;;;;;;;;;8.07;61.54;95601.59;4215234;28;5931;-66
2023/12/02 06:26:53;;;;;;;;;;;;;;;8.07;61.35;95609.50;4215169;28;5672;-66
2023/12/02 06:28:57;;;;;;;;;;;;;;;8.10;61.44;95606.44;4213019;28;5802;-66
2023/12/02 06:30:59;;;;;;;;;;;;;;;8.09;61.05;95615.34;4211008;28;5673;-66
2023/12/02 06:33:02;;;;;;;;;;;;;;;8.10;61.07;95618.81;4212897;28;5890;-66
2023/12/02 06:35:06;;;;;;;;;;;;;;;8.10;60.96;95613.53;4213481;28;5691;-66
2023/12/02 06:37:09;;;;;;;;;;;;;;;8.06;60.29;95622.88;4224591;28;5736;-66
2023/12/02 06:39:12;;;;;;;;;;;;;;;8.01;60.93;95630.56;4216933;28;5818;-66
2023/12/02 06:41:15;;;;;;;;;;;;;;;7.97;60.58;95635.44;4213923;28;6510;-66
2023/12/02 06:43:18;;;;;;;;;;;;;;;7.93;60.42;95634.22;4214583;28;6490;-67
2023/12/02 06:45:22;;;;;;;;;;;;;;;7.89;60.30;95638.25;4212901;28;5659;-66
2023/12/02 06:47:25;;;;;;;;;;;;;;;7.84;60.36;95646.78;4214276;28;5691;-67
2023/12/02 06:49:28;;;;;;;;;;;;;;;7.84;60.66;95640.72;4215637;28;5691;-66
2023/12/02 06:51:31;;;;;;;;;;;;;;;7.81;60.37;95649.00;4217454;28;5663;-66
2023/12/02 06:53:33;;;;;;;;;;;;;;;7.77;60.65;95663.56;4213593;28;5671;-67
2023/12/02 06:55:36;;;;;;;;;;;;;;;7.69;59.51;95661.94;4216172;28;5642;-66
2023/12/02 06:57:39;;;;;;;;;;;;;;;7.53;59.77;95662.34;4214483;28;5746;-65
2023/12/02 06:59:45;;;;;;;;;;;;;;;7.44;59.27;95667.00;4213908;28;5811;-66
2023/12/02 07:01:50;;;;;;;;;;;;;;;7.38;59.81;95667.81;4211854;28;5644;-66
2023/12/02 07:03:54;;;;;;;;;;;;;;;7.38;59.81;95669.63;4216176;28;5663;-66
2023/12/02 07:05:57;;;;;;;;;;;;;;;7.37;59.85;95666.19;4220698;28;5670;-66
2023/12/02 07:08:00;;;;;;;;;;;;;;;7.43;59.79;95665.38;4216619;28;5717;-66
2023/12/02 07:10:02;;;;;;;;;;;;;;;7.50;60.01;95676.72;4213736;28;5792;-66
2023/12/02 07:12:06;;;;;;;;;;;;;;;7.51;59.57;95678.34;4219709;28;5790;-65
2023/12/02 07:14:09;;;;;;;;;;;;;;;7.55;59.65;95681.38;4217231;28;5671;-65
2023/12/02 07:16:12;;;;;;;;;;;;;;;7.57;59.23;95688.03;4213699;28;5850;-66
2023/12/02 07:18:16;;;;;;;;;;;;;;;7.52;58.83;95687.84;4219543;28;5906;-66
2023/12/02 07:20:19;;;;;;;;;;;;;;;7.51;58.70;95691.50;4219862;28;5675;-67
2023/12/02 07:22:22;;;;;;;;;;;;;;;7.46;57.68;95700.97;4218645;28;5831;-66
2023/12/02 07:24:25;;;;;;;;;;;;;;;7.36;58.17;95696.13;4214904;28;5677;-67
2023/12/02 07:26:29;;;;;;;;;;;;;;;7.26;57.44;95699.13;4219791;28;5791;-71
2023/12/02 07:28:34;;;;;;;;;;;;;;;7.18;57.95;95709.03;4214726;28;5668;-70
2023/12/02 07:30:37;;;;;;;;;;;;;;;7.21;57.99;95714.69;4208848;28;5918;-71
2023/12/02 07:32:40;;;;;;;;;;;;;;;7.17;57.53;95707.41;4216556;28;5786;-71
2023/12/02 07:34:43;;;;;;;;;;;;;;;7.24;58.14;95708.22;4216021;28;5661;-71
2023/12/02 07:36:47;;;;;;;;;;;;;;;7.33;58.14;95714.91;4207023;28;5842;-70
2023/12/02 07:38:49;;;;;;;;;;;;;;;7.40;57.46;95718.38;4216739;28;5834;-70
2023/12/02 07:40:52;;;;;;;;;;;;;;;7.28;56.74;95723.41;4211329;28;5685;-66
2023/12/02 07:42:55;;;;;;;;;;;;;;;7.19;56.54;95727.22;4218849;28;5658;-66
2023/12/02 07:44:58;;;;;;;;;;;;;;;7.14;56.18;95723.56;4212992;28;5844;-66
2023/12/02 07:47:01;;;;;;;;;;;;;;;7.07;55.51;95738.50;4204404;28;5859;-66
2023/12/02 07:49:04;;;;;;;;;;;;;;;6.98;55.43;95728.16;4210472;28;5685;-66
2023/12/02 07:51:09;;;;;;;;;;;;;;;6.90;54.61;95738.00;4217267;28;5105;-66
2023/12/02 07:53:12;;;;;;;;;;;;;;;6.78;54.27;95750.91;4210890;28;5692;-69
2023/12/02 07:55:15;;;;;;;;;;;;;;;6.68;55.21;95745.19;4218804;28;5825;-66
2023/12/02 07:57:18;;;;;;;;;;;;;;;6.71;55.67;95752.69;4221022;28;5663;-66
2023/12/02 07:59:21;;;;;;;;;;;;;;;6.82;56.44;95746.91;4218833;28;5655;-66
2023/12/02 08:01:25;;;;;;;;;;;;;;;6.92;56.02;95757.84;4214687;28;5746;-66
2023/12/02 08:03:28;;;;;;;;;;;;;;;7.00;55.52;95756.84;4221648;28;5634;-66
2023/12/02 08:05:31;;;;;;;;;;;;;;;6.96;55.21;95761.72;4217917;28;5652;-67
2023/12/02 08:07:37;;;;;;;;;;;;;;;6.92;55.00;95757.84;4219296;28;5688;-66
2023/12/02 08:09:40;;;;;;;;;;;;;;;6.86;54.86;95770.94;4216783;28;5651;-66
2023/12/02 08:11:43;;;;;;;;;;;;;;;6.77;54.38;95767.66;4218741;28;5637;-65
2023/12/02 08:13:46;;;;;;;;;;;;;;;6.73;54.89;95766.44;4217875;28;5696;-65
2023/12/02 08:15:48;;;;;;;;;;;;;;;6.74;54.48;95783.81;4204462;28;5692;-65
2023/12/02 08:17:50;;;;;;;;;;;;;;;6.63;54.38;95773.84;4217685;28;5643;-65
2023/12/02 08:19:53;;;;;;;;;;;;;;;6.58;54.64;95779.69;4218559;28;5656;-66
2023/12/02 08:21:56;;;;;;;;;;;;;;;6.61;54.55;95784.56;4219077;28;5754;-66
2023/12/02 08:24:00;;;;;;;;;;;;;;;6.63;55.20;95779.09;4218567;28;5656;-66
2023/12/02 08:26:04;;;;;;;;;;;;;;;6.75;55.39;95790.69;4217411;28;5663;-66
2023/12/02 08:28:06;;;;;;;;;;;;;;;6.80;55.21;95790.13;4215680;28;5704;-66
2023/12/02 08:30:10;;;;;;;;;;;;;;;6.86;55.21;95791.97;4214948;28;5752;-68
2023/12/02 08:32:13;;;;;;;;;;;;;;;6.96;54.93;95798.50;4212559;28;5655;-66
2023/12/02 08:34:16;;;;;;;;;;;;;;;6.95;54.33;95802.13;4215397;28;5100;-66
2023/12/02 08:36:19;;;;;;;;;;;;;;;6.92;54.66;95806.97;4209291;28;7698;-66
2023/12/02 08:38:22;;;;;;;;;;;;;;;6.94;54.44;95813.66;4213012;28;6400;-66
2023/12/02 08:40:26;;;;;;;;;;;;;;;6.88;53.61;95816.22;4217986;28;5784;-66
2023/12/02 08:42:29;;;;;;;;;;;;;;;6.82;54.06;95824.91;4215745;28;5671;-65
2023/12/02 08:44:32;;;;;;;;;;;;;;;6.72;53.49;95835.75;4214097;28;6074;-66
2023/12/02 08:46:35;;;;;;;;;;;;;;;6.59;54.04;95830.41;4210564;28;6352;-66
2023/12/02 08:48:37;;;;;;;;;;;;;;;6.60;53.89;95838.09;4218048;28;5771;-66
2023/12/02 08:50:40;;;;;;;;;;;;;;;6.55;54.05;95844.91;4217695;28;5749;-67
2023/12/02 08:52:42;;;;;;;;;;;;;;;6.54;53.40;95848.53;4215002;28;5830;-66
2023/12/02 08:54:45;;;;;;;;;;;;;;;6.54;54.00;95859.84;4215110;28;6173;-65
2023/12/02 08:56:50;;;;;;;;;;;;;;;6.54;53.72;95862.47;4216546;28;6366;-66
2023/12/02 08:58:54;;;;;;;;;;;;;;;6.52;53.79;95867.09;4217620;28;5679;-66
2023/12/02 09:00:57;;;;;;;;;;;;;;;6.56;54.14;95862.28;4209478;28;5671;-66
2023/12/02 09:02:59;;;;;;;;;;;;;;;6.55;53.38;95863.28;4217918;28;5656;-66
2023/12/02 09:05:05;;;;;;;;;;;;;;;6.51;53.81;95867.31;4218308;28;5730;-67
2023/12/02 09:07:08;;;;;;;;;;;;;;;6.51;53.88;95878.63;4217817;28;5678;-66
2023/12/02 09:09:10;;;;;;;;;;;;;;;6.56;53.73;95878.84;4218044;28;5660;-66
2023/12/02 09:11:13;;;;;;;;;;;;;;;6.55;53.98;95879.84;4217875;28;5811;-66
2023/12/02 09:13:41;;;;;;;;;;;;;;;6.55;53.74;95889.53;4217920;28;6015;-66
2023/12/02 09:15:45;;;;;;;;;;;;;;;6.58;53.93;95887.38;4217889;28;6742;-66
2023/12/02 09:18:08;;;;;;;;;;;;;;;6.62;53.97;95893.03;4217659;28;5667;-66
2023/12/02 09:20:33;;;;;;;;;;;;;;;6.71;53.48;95899.78;4211845;28;5667;-66
2023/12/02 09:22:47;;;;;;;;;;;;;;;6.60;53.00;95905.56;4217875;28;5664;-66
2023/12/02 09:24:49;;;;;;;;;;;;;;;6.56;52.85;95910.34;4217740;28;5663;-66
2023/12/02 09:26:52;;;;;;;;;;;;;;;6.57;53.54;95922.50;4217862;28;5753;-66
2023/12/02 09:28:56;;;;;;;;;;;;;;;6.57;52.73;95911.16;4217781;28;5667;-66
2023/12/02 09:31:06;;;;;;;;;;;;;;;6.51;53.12;95928.50;4209971;28;5684;-66
2023/12/02 09:33:11;;;;;;;;;;;;;;;6.53;53.30;95930.94;4217389;28;5689;-66
2023/12/02 09:35:15;;;;;;;;;;;;;;;6.54;52.98;95928.13;4217586;28;5683;-66
2023/12/02 09:37:56;;;;;;;;;;;;;;;6.55;52.93;95932.38;4217517;28;5668;-66
2023/12/02 09:40:35;;;;;;;;;;;;;;;6.62;53.47;95938.50;4209421;28;5807;-66
2023/12/02 09:42:38;;;;;;;;;;;;;;;6.61;52.81;95946.56;4217560;28;5675;-66
2023/12/02 09:44:47;;;;;;;;;;;;;;;6.62;53.04;95956.88;4217429;28;5659;-66
2023/12/02 09:47:03;;;;;;;;;;;;;;;6.64;52.21;95948.81;4217777;28;5671;-66
2023/12/02 09:49:22;;;;;;;;;;;;;;;6.56;52.76;95951.56;4210778;28;5694;-65
2023/12/02 09:51:41;;;;;;;;;;;;;;;6.61;53.07;95959.69;4217561;28;5675;-66
2023/12/02 09:53:48;;;;;;;;;;;;;;;6.69;52.99;95963.03;4217359;28;5900;-67
2023/12/02 09:55:59;;;;;;;;;;;;;;;6.78;52.79;95968.94;4217224;28;6386;-67
2023/12/02 09:58:17;;;;;;;;;;;;;;;6.80;53.17;95968.75;4209760;28;5762;-66
2023/12/02 10:00:40;;;;;;;;;;;;;;;6.84;52.41;95975.25;4217425;28;5663;-66
2023/12/02 10:02:58;;;;;;;;;;;;;;;6.83;52.72;95969.19;4217301;28;6369;-66
2023/12/02 10:05:09;;;;;;;;;;;;;;;6.77;52.19;95980.44;4209588;28;6345;-65
2023/12/02 10:07:27;;;;;;;;;;;;;;;6.80;52.27;95976.66;4217120;28;6352;-66
2023/12/02 10:09:43;;;;;;;;;;;;;;;6.83;51.93;95973.63;4217374;28;5679;-66
2023/12/02 10:11:59;;;;;;;;;;;;;;;6.82;51.85;95985.97;4217273;28;5785;-65
2023/12/02 10:14:10;;;;;;;;;;;;;;;6.75;51.48;95990.34;4209731;28;5680;-65
2023/12/02 10:16:16;;;;;;;;;;;;;;;6.68;51.85;95986.81;4217163;28;5841;-65
2023/12/02 10:18:23;;;;;;;;;;;;;;;6.64;51.80;95985.59;4217052;28;5666;-65
2023/12/02 10:20:28;;;;;;;;;;;;;;;6.72;52.16;95990.72;4217472;28;5889;-65
2023/12/02 10:22:35;;;;;;;;;;;;;;;6.78;52.16;95991.75;4217356;28;5675;-66
2023/12/02 10:24:46;;;;;;;;;;;;;;;6.84;52.21;95996.28;4216825;28;5679;-66
2023/12/02 10:26:54;;;;;;;;;;;;;;;6.93;52.36;95998.59;4217056;28;5837;-64
2023/12/02 10:29:09;;;;;;;;;;;;;;;6.94;50.81;96007.28;4208901;28;5663;-65
2023/12/02 10:31:25;;;;;;;;;;;;;;;6.76;50.35;96004.28;4217141;28;5905;-66
2023/12/02 10:33:29;;;;;;;;;;;;;;;6.66;51.04;96004.59;4217112;28;5772;-66
2023/12/02 10:35:36;;;;;;;;;;;;;;;6.66;51.41;96007.22;4217074;28;5671;-66
2023/12/02 10:37:42;;;;;;;;;;;;;;;6.68;51.34;96013.09;4216971;28;5823;-65
2023/12/02 10:39:51;;;;;;;;;;;;;;;6.79;51.75;96017.84;4217079;28;5774;-65
2023/12/02 10:42:03;;;;;;;;;;;;;;;6.82;50.82;96025.38;4217034;28;5746;-66
2023/12/02 10:44:08;;;;;;;;;;;;;;;6.75;50.19;96019.22;4212914;28;6394;-66
2023/12/02 10:46:12;;;;;;;;;;;;;;;6.72;50.42;96023.03;4218446;28;6369;-66
2023/12/02 10:48:18;;;;;;;;;;;;;;;6.60;49.91;96021.91;4219129;28;5362;-66
2023/12/02 10:50:25;;;;;;;;;;;;;;;6.54;49.75;96019.22;4217926;28;7310;-66
2023/12/02 10:52:29;;;;;;;;;;;;;;;6.43;50.40;96026.56;4220068;28;6329;-65
2023/12/02 10:54:40;;;;;;;;;;;;;;;6.46;50.55;96022.78;4223912;28;5660;-65
2023/12/02 10:56:46;;;;;;;;;;;;;;;6.49;50.77;96014.53;4219853;28;5650;-66
2023/12/02 10:58:51;;;;;;;;;;;;;;;6.50;50.30;96013.53;4212348;28;5693;-68
2023/12/02 11:01:03;;;;;;;;;;;;;;;6.48;50.38;96022.59;4219686;28;5738;-67
2023/12/02 11:03:14;;;;;;;;;;;;;;;6.49;50.07;96034.72;4219969;28;5777;-66
2023/12/02 11:05:23;;;;;;;;;;;;;;;6.49;50.36;96029.47;4219732;28;5770;-65